sensor_id;sensor_type;location;lat;lon;timestamp;pressure;altitude;pressure_sealevel;temperature;humidity
63285;BME280;49409;55.708;37.522;2023-01-08T00:01:16;100787.91;;;-12.38;42.68
63285;BME280;49409;55.708;37.522;2023-01-08T00:03:41;100786.53;;;-12.29;43.00
63285;BME280;49409;55.708;37.522;2023-01-08T00:06:08;100781.94;;;-12.22;42.73
63285;BME280;49409;55.708;37.522;2023-01-08T00:08:34;100791.63;;;-12.15;42.79
63285;BME280;49409;55.708;37.522;2023-01-08T00:11:00;100790.25;;;-12.06;42.71
63285;BME280;49409;55.708;37.522;2023-01-08T00:13:25;100788.84;;;-11.97;42.57
63285;BME280;49409;55.708;37.522;2023-01-08T00:15:51;100781.31;;;-11.88;42.60
63285;BME280;49409;55.708;37.522;2023-01-08T00:18:16;100786.94;;;-11.85;42.36
63285;BME280;49409;55.708;37.522;2023-01-08T00:20:42;100784.06;;;-11.83;42.38
63285;BME280;49409;55.708;37.522;2023-01-08T00:23:11;100782.31;;;-11.78;42.74
63285;BME280;49409;55.708;37.522;2023-01-08T00:25:37;100789.56;;;-11.73;42.32
63285;BME280;49409;55.708;37.522;2023-01-08T00:28:02;100790.50;;;-11.67;42.45
63285;BME280;49409;55.708;37.522;2023-01-08T00:30:28;100786.34;;;-11.75;42.59
63285;BME280;49409;55.708;37.522;2023-01-08T00:32:53;100797.81;;;-11.74;42.47
63285;BME280;49409;55.708;37.522;2023-01-08T00:35:18;100794.22;;;-11.80;42.80
63285;BME280;49409;55.708;37.522;2023-01-08T00:37:43;100799.97;;;-11.83;42.49
63285;BME280;49409;55.708;37.522;2023-01-08T00:40:09;100799.00;;;-11.94;42.87
63285;BME280;49409;55.708;37.522;2023-01-08T00:42:34;100795.78;;;-11.96;42.63
63285;BME280;49409;55.708;37.522;2023-01-08T00:45:00;100800.72;;;-12.00;42.63
63285;BME280;49409;55.708;37.522;2023-01-08T00:47:25;100796.34;;;-12.06;42.92
63285;BME280;49409;55.708;37.522;2023-01-08T00:49:50;100802.03;;;-12.14;42.75
63285;BME280;49409;55.708;37.522;2023-01-08T00:52:16;100803.25;;;-12.17;43.07
63285;BME280;49409;55.708;37.522;2023-01-08T00:54:41;100801.44;;;-12.16;42.97
63285;BME280;49409;55.708;37.522;2023-01-08T00:57:06;100807.06;;;-12.12;43.03
63285;BME280;49409;55.708;37.522;2023-01-08T00:59:31;100809.06;;;-12.08;42.88
63285;BME280;49409;55.708;37.522;2023-01-08T01:01:57;100801.31;;;-12.09;42.94
63285;BME280;49409;55.708;37.522;2023-01-08T01:04:23;100809.06;;;-12.08;42.59
63285;BME280;49409;55.708;37.522;2023-01-08T01:06:49;100804.09;;;-12.04;43.34
63285;BME280;49409;55.708;37.522;2023-01-08T01:09:14;100806.47;;;-11.91;42.48
63285;BME280;49409;55.708;37.522;2023-01-08T01:11:39;100808.91;;;-11.89;42.54
63285;BME280;49409;55.708;37.522;2023-01-08T01:14:05;100815.56;;;-11.87;42.68
63285;BME280;49409;55.708;37.522;2023-01-08T01:16:30;100808.88;;;-11.78;42.90
63285;BME280;49409;55.708;37.522;2023-01-08T01:18:55;100800.88;;;-11.66;42.62
63285;BME280;49409;55.708;37.522;2023-01-08T01:23:47;100811.38;;;-11.59;42.33
63285;BME280;49409;55.708;37.522;2023-01-08T01:26:16;100806.53;;;-11.62;42.32
63285;BME280;49409;55.708;37.522;2023-01-08T01:28:42;100811.97;;;-11.69;42.24
63285;BME280;49409;55.708;37.522;2023-01-08T01:31:09;100808.41;;;-11.74;42.71
63285;BME280;49409;55.708;37.522;2023-01-08T01:33:35;100808.88;;;-11.78;42.58
63285;BME280;49409;55.708;37.522;2023-01-08T01:36:01;100801.25;;;-11.74;42.53
63285;BME280;49409;55.708;37.522;2023-01-08T01:38:26;100797.91;;;-11.81;42.67
63285;BME280;49409;55.708;37.522;2023-01-08T01:40:52;100801.47;;;-11.75;42.45
63285;BME280;49409;55.708;37.522;2023-01-08T01:43:34;100803.56;;;-11.78;42.34
63285;BME280;49409;55.708;37.522;2023-01-08T01:45:59;100801.13;;;-11.79;42.45
63285;BME280;49409;55.708;37.522;2023-01-08T01:48:25;100801.38;;;-11.81;42.67
63285;BME280;49409;55.708;37.522;2023-01-08T01:50:50;100799.41;;;-11.73;42.69
63285;BME280;49409;55.708;37.522;2023-01-08T01:53:19;100804.34;;;-11.65;42.51
63285;BME280;49409;55.708;37.522;2023-01-08T01:55:47;100808.13;;;-11.61;42.26
63285;BME280;49409;55.708;37.522;2023-01-08T01:58:15;100803.97;;;-11.57;42.14
63285;BME280;49409;55.708;37.522;2023-01-08T02:00:41;100806.53;;;-11.62;42.30
63285;BME280;49409;55.708;37.522;2023-01-08T02:03:07;100795.13;;;-11.63;42.63
63285;BME280;49409;55.708;37.522;2023-01-08T02:05:43;100809.09;;;-11.67;42.81
63285;BME280;49409;55.708;37.522;2023-01-08T02:08:12;100796.88;;;-11.68;42.47
63285;BME280;49409;55.708;37.522;2023-01-08T02:10:41;100805.50;;;-11.73;42.43
63285;BME280;49409;55.708;37.522;2023-01-08T02:13:09;100802.41;;;-11.82;42.78
63285;BME280;49409;55.708;37.522;2023-01-08T02:16:20;100800.78;;;-11.83;42.55
63285;BME280;49409;55.708;37.522;2023-01-08T02:18:37;100804.66;;;-11.90;42.60
63285;BME280;49409;55.708;37.522;2023-01-08T02:21:09;100816.31;;;-11.91;43.16
63285;BME280;49409;55.708;37.522;2023-01-08T02:23:44;100811.88;;;-11.86;42.67
63285;BME280;49409;55.708;37.522;2023-01-08T02:28:53;100807.91;;;-12.00;43.22
63285;BME280;49409;55.708;37.522;2023-01-08T02:31:19;100804.53;;;-11.95;42.93
63285;BME280;49409;55.708;37.522;2023-01-08T02:33:46;100802.28;;;-11.87;42.83
63285;BME280;49409;55.708;37.522;2023-01-08T02:36:16;100802.41;;;-11.82;43.04
63285;BME280;49409;55.708;37.522;2023-01-08T02:39:34;100808.41;;;-11.74;43.15
63285;BME280;49409;55.708;37.522;2023-01-08T02:41:43;100805.06;;;-11.70;43.09
63285;BME280;49409;55.708;37.522;2023-01-08T02:44:12;100802.63;;;-11.71;43.07
63285;BME280;49409;55.708;37.522;2023-01-08T02:46:41;100803.78;;;-11.67;42.83
63285;BME280;49409;55.708;37.522;2023-01-08T02:49:07;100811.28;;;-11.64;43.23
63285;BME280;49409;55.708;37.522;2023-01-08T02:51:38;100808.06;;;-11.66;42.73
63285;BME280;49409;55.708;37.522;2023-01-08T02:54:10;100806.53;;;-11.62;42.66
63285;BME280;49409;55.708;37.522;2023-01-08T02:56:39;100803.41;;;-11.59;42.66
63285;BME280;49409;55.708;37.522;2023-01-08T02:59:06;100796.91;;;-11.51;42.90
63285;BME280;49409;55.708;37.522;2023-01-08T03:01:35;100799.91;;;-11.48;42.78
63285;BME280;49409;55.708;37.522;2023-01-08T03:04:02;100796.25;;;-11.47;42.75
63285;BME280;49409;55.708;37.522;2023-01-08T03:06:29;100795.19;;;-11.46;42.72
63285;BME280;49409;55.708;37.522;2023-01-08T03:08:55;100791.00;;;-11.42;42.44
63285;BME280;49409;55.708;37.522;2023-01-08T03:11:23;100790.34;;;-11.49;42.55
63285;BME280;49409;55.708;37.522;2023-01-08T03:16:34;100798.66;;;-11.57;42.76
63285;BME280;49409;55.708;37.522;2023-01-08T03:19:20;100806.06;;;-11.59;42.75
63285;BME280;49409;55.708;37.522;2023-01-08T03:21:47;100811.06;;;-11.63;42.76
63285;BME280;49409;55.708;37.522;2023-01-08T03:24:15;100805.41;;;-11.66;42.92
63285;BME280;49409;55.708;37.522;2023-01-08T03:26:42;100817.16;;;-11.62;42.76
63285;BME280;49409;55.708;37.522;2023-01-08T03:29:10;100819.25;;;-11.64;42.63
63285;BME280;49409;55.708;37.522;2023-01-08T03:31:38;100818.91;;;-11.68;42.81
63285;BME280;49409;55.708;37.522;2023-01-08T03:34:04;100819.94;;;-11.69;42.83
63285;BME280;49409;55.708;37.522;2023-01-08T03:36:30;100814.75;;;-11.64;43.33
63285;BME280;49409;55.708;37.522;2023-01-08T03:39:00;100815.09;;;-11.60;42.66
63285;BME280;49409;55.708;37.522;2023-01-08T03:41:30;100810.13;;;-11.57;43.06
63285;BME280;49409;55.708;37.522;2023-01-08T03:43:56;100822.56;;;-11.57;43.26
63285;BME280;49409;55.708;37.522;2023-01-08T03:46:24;100812.63;;;-11.50;43.18
63285;BME280;49409;55.708;37.522;2023-01-08T03:48:52;100811.13;;;-11.46;42.80
63285;BME280;49409;55.708;37.522;2023-01-08T03:51:18;100813.31;;;-11.43;43.00
63285;BME280;49409;55.708;37.522;2023-01-08T03:53:44;100810.84;;;-11.32;43.06
63285;BME280;49409;55.708;37.522;2023-01-08T03:56:11;100821.09;;;-11.24;42.94
63285;BME280;49409;55.708;37.522;2023-01-08T03:58:36;100813.47;;;-11.21;43.14
63285;BME280;49409;55.708;37.522;2023-01-08T04:01:02;100823.75;;;-11.24;43.08
63285;BME280;49409;55.708;37.522;2023-01-08T04:03:27;100821.22;;;-11.19;42.99
63285;BME280;49409;55.708;37.522;2023-01-08T04:05:53;100818.63;;;-11.14;43.51
63285;BME280;49409;55.708;37.522;2023-01-08T04:08:18;100825.09;;;-11.10;43.10
63285;BME280;49409;55.708;37.522;2023-01-08T04:10:43;100828.19;;;-11.01;42.96
63285;BME280;49409;55.708;37.522;2023-01-08T04:13:09;100815.53;;;-10.94;43.16
63285;BME280;49409;55.708;37.522;2023-01-08T04:15:34;100809.53;;;-10.89;43.06
63285;BME280;49409;55.708;37.522;2023-01-08T04:17:59;100813.22;;;-10.90;43.23
63285;BME280;49409;55.708;37.522;2023-01-08T04:20:25;100820.16;;;-10.89;43.08
63285;BME280;49409;55.708;37.522;2023-01-08T04:22:50;100805.34;;;-10.85;43.33
63285;BME280;49409;55.708;37.522;2023-01-08T04:25:15;100801.63;;;-10.84;43.04
63285;BME280;49409;55.708;37.522;2023-01-08T04:27:41;100800.38;;;-10.82;43.23
63285;BME280;49409;55.708;37.522;2023-01-08T04:30:06;100795.53;;;-10.68;43.21
63285;BME280;49409;55.708;37.522;2023-01-08T04:32:31;100798.94;;;-10.55;42.97
63285;BME280;49409;55.708;37.522;2023-01-08T04:34:57;100805.84;;;-10.54;43.04
63285;BME280;49409;55.708;37.522;2023-01-08T04:37:22;100810.13;;;-10.53;42.59
63285;BME280;49409;55.708;37.522;2023-01-08T04:39:48;100800.94;;;-10.63;43.14
63285;BME280;49409;55.708;37.522;2023-01-08T04:42:13;100796.69;;;-10.64;42.88
63285;BME280;49409;55.708;37.522;2023-01-08T04:44:38;100807.78;;;-10.67;43.15
63285;BME280;49409;55.708;37.522;2023-01-08T04:47:03;100798.69;;;-10.71;43.22
63285;BME280;49409;55.708;37.522;2023-01-08T04:49:29;100801.66;;;-10.67;43.20
63285;BME280;49409;55.708;37.522;2023-01-08T04:51:54;100799.81;;;-10.67;43.38
63285;BME280;49409;55.708;37.522;2023-01-08T04:54:19;100797.00;;;-10.60;43.04
63285;BME280;49409;55.708;37.522;2023-01-08T04:56:45;100790.28;;;-10.63;42.89
63285;BME280;49409;55.708;37.522;2023-01-08T04:59:10;100795.06;;;-10.65;43.05
63285;BME280;49409;55.708;37.522;2023-01-08T05:01:35;100800.03;;;-10.68;43.03
63285;BME280;49409;55.708;37.522;2023-01-08T05:04:01;100796.69;;;-10.64;43.11
63285;BME280;49409;55.708;37.522;2023-01-08T05:06:27;100798.78;;;-10.66;43.17
63285;BME280;49409;55.708;37.522;2023-01-08T05:08:54;100797.00;;;-10.60;43.37
63285;BME280;49409;55.708;37.522;2023-01-08T05:11:19;100788.75;;;-10.59;43.45
63285;BME280;49409;55.708;37.522;2023-01-08T05:13:48;100798.94;;;-10.55;43.30
63285;BME280;49409;55.708;37.522;2023-01-08T05:16:13;100800.06;;;-10.51;43.39
63285;BME280;49409;55.708;37.522;2023-01-08T05:18:39;100802.66;;;-10.40;43.37
63285;BME280;49409;55.708;37.522;2023-01-08T05:21:04;100798.25;;;-10.29;42.88
63285;BME280;49409;55.708;37.522;2023-01-08T05:23:30;100804.22;;;-10.22;43.09
63285;BME280;49409;55.708;37.522;2023-01-08T05:25:59;100803.25;;;-10.15;43.10
63285;BME280;49409;55.708;37.522;2023-01-08T05:28:25;100806.13;;;-10.17;42.96
63285;BME280;49409;55.708;37.522;2023-01-08T05:30:51;100806.00;;;-10.10;43.35
63285;BME280;49409;55.708;37.522;2023-01-08T05:33:16;100816.13;;;-10.07;43.04
63285;BME280;49409;55.708;37.522;2023-01-08T05:35:41;100811.47;;;-10.00;43.10
63285;BME280;49409;55.708;37.522;2023-01-08T05:38:07;100814.75;;;-9.93;43.03
63285;BME280;49409;55.708;37.522;2023-01-08T05:40:32;100802.63;;;-9.84;43.18
63285;BME280;49409;55.708;37.522;2023-01-08T05:42:58;100803.13;;;-9.87;42.77
63285;BME280;49409;55.708;37.522;2023-01-08T05:45:23;100803.19;;;-9.82;43.40
63285;BME280;49409;55.708;37.522;2023-01-08T05:47:49;100802.63;;;-9.84;43.04
63285;BME280;49409;55.708;37.522;2023-01-08T05:53:29;100810.47;;;-9.77;43.00
63285;BME280;49409;55.708;37.522;2023-01-08T05:56:00;100799.97;;;-9.84;42.86
63285;BME280;49409;55.708;37.522;2023-01-08T05:58:25;100798.03;;;-9.88;43.14
63285;BME280;49409;55.708;37.522;2023-01-08T06:00:51;100802.06;;;-9.86;42.97
63285;BME280;49409;55.708;37.522;2023-01-08T06:03:18;100803.19;;;-9.82;43.22
63285;BME280;49409;55.708;37.522;2023-01-08T06:05:44;100796.06;;;-9.76;43.17
63285;BME280;49409;55.708;37.522;2023-01-08T06:08:09;100795.91;;;-9.69;42.81
63285;BME280;49409;55.708;37.522;2023-01-08T06:10:36;100794.91;;;-9.63;42.93
63285;BME280;49409;55.708;37.522;2023-01-08T06:13:05;100795.41;;;-9.66;42.72
63285;BME280;49409;55.708;37.522;2023-01-08T06:15:30;100790.88;;;-9.66;43.04
63285;BME280;49409;55.708;37.522;2023-01-08T06:17:55;100798.31;;;-9.68;42.76
63285;BME280;49409;55.708;37.522;2023-01-08T06:20:21;100793.41;;;-9.76;43.01
63285;BME280;49409;55.708;37.522;2023-01-08T06:22:46;100798.69;;;-9.81;42.91
63285;BME280;49409;55.708;37.522;2023-01-08T06:25:11;100797.38;;;-9.79;43.09
63285;BME280;49409;55.708;37.522;2023-01-08T06:27:37;100798.50;;;-9.74;43.32
63285;BME280;49409;55.708;37.522;2023-01-08T06:30:02;100804.31;;;-9.78;42.95
63285;BME280;49409;55.708;37.522;2023-01-08T06:32:28;100800.78;;;-9.83;43.46
63285;BME280;49409;55.708;37.522;2023-01-08T06:34:53;100809.94;;;-9.74;43.02
63285;BME280;49409;55.708;37.522;2023-01-08T06:37:18;100812.56;;;-9.79;42.79
63285;BME280;49409;55.708;37.522;2023-01-08T06:39:44;100812.25;;;-9.83;42.85
63285;BME280;49409;55.708;37.522;2023-01-08T06:42:09;100810.63;;;-9.84;43.00
63285;BME280;49409;55.708;37.522;2023-01-08T06:44:34;100813.78;;;-9.87;43.08
63285;BME280;49409;55.708;37.522;2023-01-08T06:47:00;100812.41;;;-9.89;43.56
63285;BME280;49409;55.708;37.522;2023-01-08T06:49:25;100805.38;;;-9.79;43.23
63285;BME280;49409;55.708;37.522;2023-01-08T06:51:50;100801.28;;;-9.64;42.86
63285;BME280;49409;55.708;37.522;2023-01-08T06:54:16;100813.63;;;-9.58;43.08
63285;BME280;49409;55.708;37.522;2023-01-08T06:56:41;100815.84;;;-9.50;42.62
63285;BME280;49409;55.708;37.522;2023-01-08T06:59:06;100813.25;;;-9.45;42.74
63285;BME280;49409;55.708;37.522;2023-01-08T07:01:32;100814.38;;;-9.41;42.54
63285;BME280;49409;55.708;37.522;2023-01-08T07:03:57;100826.88;;;-9.41;42.82
63285;BME280;49409;55.708;37.522;2023-01-08T07:06:22;100831.47;;;-9.37;42.87
63285;BME280;49409;55.708;37.522;2023-01-08T07:08:49;100822.44;;;-9.35;42.53
63285;BME280;49409;55.708;37.522;2023-01-08T07:11:14;100829.88;;;-9.38;42.33
63285;BME280;49409;55.708;37.522;2023-01-08T07:13:40;100824.47;;;-9.43;42.57
63285;BME280;49409;55.708;37.522;2023-01-08T07:16:08;100831.47;;;-9.37;42.56
63285;BME280;49409;55.708;37.522;2023-01-08T07:18:34;100831.16;;;-9.40;42.41
63285;BME280;49409;55.708;37.522;2023-01-08T07:21:00;100832.47;;;-9.43;42.19
63285;BME280;49409;55.708;37.522;2023-01-08T07:23:26;100834.44;;;-9.55;42.28
63285;BME280;49409;55.708;37.522;2023-01-08T07:25:51;100837.38;;;-9.73;42.78
63285;BME280;49409;55.708;37.522;2023-01-08T07:28:16;100836.25;;;-9.78;42.63
63285;BME280;49409;55.708;37.522;2023-01-08T07:30:42;100836.75;;;-9.81;42.78
63285;BME280;49409;55.708;37.522;2023-01-08T07:33:08;100835.78;;;-9.74;42.51
63285;BME280;49409;55.708;37.522;2023-01-08T07:35:34;100846.91;;;-9.78;42.64
63285;BME280;49409;55.708;37.522;2023-01-08T07:37:59;100853.06;;;-9.77;42.87
63285;BME280;49409;55.708;37.522;2023-01-08T07:40:25;100863.72;;;-9.77;42.89
63285;BME280;49409;55.708;37.522;2023-01-08T07:43:00;100858.69;;;-9.73;42.92
63285;BME280;49409;55.708;37.522;2023-01-08T07:45:26;100856.53;;;-9.77;42.51
63285;BME280;49409;55.708;37.522;2023-01-08T07:47:52;100864.09;;;-9.68;42.37
63285;BME280;49409;55.708;37.522;2023-01-08T07:50:17;100865.84;;;-9.57;42.60
63285;BME280;49409;55.708;37.522;2023-01-08T07:52:42;100867.59;;;-9.46;42.60
63285;BME280;49409;55.708;37.522;2023-01-08T07:55:08;100871.97;;;-9.40;42.20
63285;BME280;49409;55.708;37.522;2023-01-08T07:57:33;100861.28;;;-9.40;42.46
63285;BME280;49409;55.708;37.522;2023-01-08T07:59:59;100862.75;;;-9.49;42.19
63285;BME280;49409;55.708;37.522;2023-01-08T08:02:24;100862.69;;;-9.54;42.09
63285;BME280;49409;55.708;37.522;2023-01-08T08:04:49;100860.84;;;-9.53;42.41
63285;BME280;49409;55.708;37.522;2023-01-08T08:07:15;100857.78;;;-9.62;42.26
63285;BME280;49409;55.708;37.522;2023-01-08T08:09:40;100853.69;;;-9.70;42.69
63285;BME280;49409;55.708;37.522;2023-01-08T08:12:05;100863.53;;;-9.70;42.61
63285;BME280;49409;55.708;37.522;2023-01-08T08:14:31;100859.41;;;-9.61;42.77
63285;BME280;49409;55.708;37.522;2023-01-08T08:16:56;100850.56;;;-9.45;42.70
63285;BME280;49409;55.708;37.522;2023-01-08T08:19:21;100856.34;;;-9.31;42.11
63285;BME280;49409;55.708;37.522;2023-01-08T08:21:47;100857.13;;;-9.30;42.04
63285;BME280;49409;55.708;37.522;2023-01-08T08:24:12;100860.34;;;-9.28;42.62
63285;BME280;49409;55.708;37.522;2023-01-08T08:26:37;100855.66;;;-9.21;42.47
63285;BME280;49409;55.708;37.522;2023-01-08T08:29:02;100852.09;;;-9.05;42.65
63285;BME280;49409;55.708;37.522;2023-01-08T08:31:28;100840.81;;;-8.90;42.46
63285;BME280;49409;55.708;37.522;2023-01-08T08:33:53;100860.47;;;-8.69;41.44
63285;BME280;49409;55.708;37.522;2023-01-08T08:36:18;100850.56;;;-8.73;41.67
63285;BME280;49409;55.708;37.522;2023-01-08T08:38:44;100859.50;;;-8.85;42.15
63285;BME280;49409;55.708;37.522;2023-01-08T08:41:09;100854.47;;;-8.81;41.97
63285;BME280;49409;55.708;37.522;2023-01-08T08:43:34;100844.91;;;-8.77;41.75
63285;BME280;49409;55.708;37.522;2023-01-08T08:46:00;100844.91;;;-8.77;42.20
63285;BME280;49409;55.708;37.522;2023-01-08T08:48:25;100839.13;;;-8.69;42.21
63285;BME280;49409;55.708;37.522;2023-01-08T08:50:51;100839.81;;;-8.56;42.27
63285;BME280;49409;55.708;37.522;2023-01-08T08:53:16;100840.47;;;-8.39;41.61
63285;BME280;49409;55.708;37.522;2023-01-08T08:55:41;100831.16;;;-8.31;42.18
63285;BME280;49409;55.708;37.522;2023-01-08T08:58:08;100836.88;;;-8.18;41.69
63285;BME280;49409;55.708;37.522;2023-01-08T09:00:35;100831.09;;;-8.04;42.02
63285;BME280;49409;55.708;37.522;2023-01-08T09:03:01;100835.19;;;-7.91;41.90
63285;BME280;49409;55.708;37.522;2023-01-08T09:05:26;100835.03;;;-7.74;41.75
63285;BME280;49409;55.708;37.522;2023-01-08T09:07:52;100825.41;;;-7.70;41.86
63285;BME280;49409;55.708;37.522;2023-01-08T09:10:18;100838.03;;;-7.66;40.96
63285;BME280;49409;55.708;37.522;2023-01-08T09:12:44;100836.41;;;-7.67;41.37
63285;BME280;49409;55.708;37.522;2023-01-08T09:15:09;100830.25;;;-7.67;41.79
63285;BME280;49409;55.708;37.522;2023-01-08T09:17:35;100836.44;;;-7.62;41.62
63285;BME280;49409;55.708;37.522;2023-01-08T09:20:01;100842.63;;;-7.56;41.61
63285;BME280;49409;55.708;37.522;2023-01-08T09:22:26;100842.34;;;-7.54;41.54
63285;BME280;49409;55.708;37.522;2023-01-08T09:24:51;100849.56;;;-7.55;41.57
63285;BME280;49409;55.708;37.522;2023-01-08T09:27:19;100842.63;;;-7.56;41.36
63285;BME280;49409;55.708;37.522;2023-01-08T09:29:44;100854.06;;;-7.66;41.15
63285;BME280;49409;55.708;37.522;2023-01-08T09:32:10;100841.94;;;-7.79;41.52
63285;BME280;49409;55.708;37.522;2023-01-08T09:34:35;100834.47;;;-7.82;41.79
63285;BME280;49409;55.708;37.522;2023-01-08T09:37:01;100837.38;;;-7.83;41.54
63285;BME280;49409;55.708;37.522;2023-01-08T09:39:26;100838.19;;;-7.83;41.58
63285;BME280;49409;55.708;37.522;2023-01-08T09:41:51;100836.84;;;-7.85;42.12
63285;BME280;49409;55.708;37.522;2023-01-08T09:44:18;100832.34;;;-7.80;41.61
63285;BME280;49409;55.708;37.522;2023-01-08T09:46:45;100827.56;;;-7.72;41.74
63285;BME280;49409;55.708;37.522;2023-01-08T09:49:11;100821.91;;;-7.76;41.37
63285;BME280;49409;55.708;37.522;2023-01-08T09:51:38;100827.00;;;-7.80;42.11
63285;BME280;49409;55.708;37.522;2023-01-08T09:54:04;100831.31;;;-7.73;41.73
63285;BME280;49409;55.708;37.522;2023-01-08T09:56:32;100824.34;;;-7.74;41.59
63285;BME280;49409;55.708;37.522;2023-01-08T09:58:58;100822.69;;;-7.81;42.18
63285;BME280;49409;55.708;37.522;2023-01-08T10:01:27;100823.78;;;-7.77;42.28
63285;BME280;49409;55.708;37.522;2023-01-08T10:06:18;100822.03;;;-7.55;42.19
63285;BME280;49409;55.708;37.522;2023-01-08T10:08:44;100820.25;;;-7.40;41.59
63285;BME280;49409;55.708;37.522;2023-01-08T10:11:10;100816.53;;;-7.28;41.47
63285;BME280;49409;55.708;37.522;2023-01-08T10:13:38;100817.06;;;-7.31;41.74
63285;BME280;49409;55.708;37.522;2023-01-08T10:16:08;100829.88;;;-7.33;41.51
63285;BME280;49409;55.708;37.522;2023-01-08T10:18:34;100827.72;;;-7.37;42.21
63285;BME280;49409;55.708;37.522;2023-01-08T10:21:00;100823.19;;;-7.31;41.66
63285;BME280;49409;55.708;37.522;2023-01-08T10:23:25;100821.81;;;-7.39;41.97
63285;BME280;49409;55.708;37.522;2023-01-08T10:25:52;100826.66;;;-7.35;42.10
63285;BME280;49409;55.708;37.522;2023-01-08T10:28:36;100822.91;;;-7.40;42.10
63285;BME280;49409;55.708;37.522;2023-01-08T10:31:05;100829.59;;;-7.37;42.48
63285;BME280;49409;55.708;37.522;2023-01-08T10:33:39;100823.75;;;-7.34;41.89
63285;BME280;49409;55.708;37.522;2023-01-08T10:36:06;100833.38;;;-7.28;41.99
63285;BME280;49409;55.708;37.522;2023-01-08T10:38:34;100819.22;;;-7.23;42.26
63285;BME280;49409;55.708;37.522;2023-01-08T10:41:00;100816.88;;;-7.14;41.62
63285;BME280;49409;55.708;37.522;2023-01-08T10:43:32;100816.56;;;-7.13;41.66
63285;BME280;49409;55.708;37.522;2023-01-08T10:45:59;100824.09;;;-7.10;41.79
63285;BME280;49409;55.708;37.522;2023-01-08T10:48:33;100819.25;;;-7.13;41.82
63285;BME280;49409;55.708;37.522;2023-01-08T10:53:44;100825.69;;;-7.14;42.20
63285;BME280;49409;55.708;37.522;2023-01-08T10:56:23;100827.31;;;-7.08;42.14
63285;BME280;49409;55.708;37.522;2023-01-08T10:58:49;100831.81;;;-7.13;41.95
63285;BME280;49409;55.708;37.522;2023-01-08T11:01:19;100840.09;;;-7.20;42.19
63285;BME280;49409;55.708;37.522;2023-01-08T11:03:56;100830.22;;;-7.20;41.72
63285;BME280;49409;55.708;37.522;2023-01-08T11:06:23;100820.84;;;-7.22;41.93
63285;BME280;49409;55.708;37.522;2023-01-08T11:08:57;100836.88;;;-7.22;42.31
63285;BME280;49409;55.708;37.522;2023-01-08T11:11:23;100831.56;;;-7.12;42.34
63285;BME280;49409;55.708;37.522;2023-01-08T11:13:58;100834.28;;;-7.07;42.34
63285;BME280;49409;55.708;37.522;2023-01-08T11:16:35;100839.13;;;-6.99;41.98
63285;BME280;49409;55.708;37.522;2023-01-08T11:19:01;100827.31;;;-6.98;41.57
63285;BME280;49409;55.708;37.522;2023-01-08T11:21:28;100826.78;;;-7.05;41.65
63285;BME280;49409;55.708;37.522;2023-01-08T11:26:43;100832.09;;;-7.15;42.05
63285;BME280;49409;55.708;37.522;2023-01-08T11:36:51;100824.09;;;-7.10;41.96
63285;BME280;49409;55.708;37.522;2023-01-08T11:39:19;100823.06;;;-6.99;41.84
63285;BME280;49409;55.708;37.522;2023-01-08T11:54:19;100829.56;;;-6.48;41.60
63285;BME280;49409;55.708;37.522;2023-01-08T12:01:44;100818.84;;;-6.69;41.83
63285;BME280;49409;55.708;37.522;2023-01-08T12:09:42;100812.88;;;-6.91;41.90
63285;BME280;49409;55.708;37.522;2023-01-08T12:12:38;100817.13;;;-7.06;41.95
63285;BME280;49409;55.708;37.522;2023-01-08T12:15:12;100815.78;;;-7.19;42.06
63285;BME280;49409;55.708;37.522;2023-01-08T12:17:56;100822.69;;;-7.28;42.62
63285;BME280;49409;55.708;37.522;2023-01-08T12:23:28;100827.72;;;-7.37;42.51
63285;BME280;49409;55.708;37.522;2023-01-08T12:26:11;100832.53;;;-7.39;42.54
63285;BME280;49409;55.708;37.522;2023-01-08T12:28:53;100824.25;;;-7.42;42.73
63285;BME280;49409;55.708;37.522;2023-01-08T12:34:01;100833.84;;;-7.46;42.26
63285;BME280;49409;55.708;37.522;2023-01-08T12:36:35;100839.22;;;-7.41;42.70
63285;BME280;49409;55.708;37.522;2023-01-08T12:39:04;100833.34;;;-7.38;42.47
63285;BME280;49409;55.708;37.522;2023-01-08T12:41:33;100823.75;;;-7.34;42.51
63285;BME280;49409;55.708;37.522;2023-01-08T12:44:00;100832.09;;;-7.20;42.84
63285;BME280;49409;55.708;37.522;2023-01-08T12:46:28;100828.94;;;-7.07;42.16
63285;BME280;49409;55.708;37.522;2023-01-08T12:48:55;100824.13;;;-7.05;42.31
63285;BME280;49409;55.708;37.522;2023-01-08T12:51:34;100829.97;;;-7.08;42.04
63285;BME280;49409;55.708;37.522;2023-01-08T13:04:17;100840.91;;;-7.20;42.82
63285;BME280;49409;55.708;37.522;2023-01-08T13:06:56;100839.03;;;-7.24;42.37
63285;BME280;49409;55.708;37.522;2023-01-08T13:09:24;100845.41;;;-7.30;42.46
63285;BME280;49409;55.708;37.522;2023-01-08T13:11:50;100833.63;;;-7.34;43.21
63285;BME280;49409;55.708;37.522;2023-01-08T13:14:17;100834.72;;;-7.25;42.89
63285;BME280;49409;55.708;37.522;2023-01-08T13:16:43;100825.94;;;-7.15;42.34
63285;BME280;49409;55.708;37.522;2023-01-08T13:19:25;100823.56;;;-7.07;42.37
63285;BME280;49409;55.708;37.522;2023-01-08T13:21:52;100826.53;;;-6.98;42.46
63285;BME280;49409;55.708;37.522;2023-01-08T13:26:54;100826.56;;;-6.93;42.32
63285;BME280;49409;55.708;37.522;2023-01-08T13:29:35;100841.78;;;-6.93;42.63
63285;BME280;49409;55.708;37.522;2023-01-08T13:32:02;100835.59;;;-6.99;42.02
63285;BME280;49409;55.708;37.522;2023-01-08T13:34:39;100837.47;;;-7.10;42.33
63285;BME280;49409;55.708;37.522;2023-01-08T13:37:06;100846.53;;;-7.16;42.68
63285;BME280;49409;55.708;37.522;2023-01-08T13:39:33;100853.19;;;-7.24;42.92
63285;BME280;49409;55.708;37.522;2023-01-08T13:44:31;100847.06;;;-7.19;43.02
63285;BME280;49409;55.708;37.522;2023-01-08T13:47:01;100852.09;;;-7.23;42.81